Time;durP1;ratioP1;P1;durP2;ratioP2;P2;SDS_P1;SDS_P2;PMS_P1;PMS_P2;Temp;Humidity;BMP_temperature;BMP_pressure;BME280_temperature;BME280_humidity;BME280_pressure;Samples;Min_cycle;Max_cycle;Signal;HPM_P1;HPM_P2
2022/06/05 00:01:41;;;;;;;11.97;11.07;;;;;;;19.59;81.40;93056.78;5072101;28;20228;-78
2022/06/05 00:04:30;;;;;;;11.30;10.30;;;;;;;19.69;81.63;93074.19;5071814;28;20192;-78
2022/06/05 00:07:04;;;;;;;12.10;10.90;;;;;;;19.83;80.71;93078.09;5071849;28;20236;-77
2022/06/05 00:09:48;;;;;;;12.93;11.83;;;;;;;19.76;80.87;93069.91;5072148;28;20241;-77
2022/06/05 00:12:18;;;;;;;12.50;11.40;;;;;;;19.74;81.50;93066.00;5070382;28;20248;-77
2022/06/05 00:14:44;;;;;;;11.37;10.43;;;;;;;19.69;81.84;93063.56;5071813;28;20258;-78
2022/06/05 00:17:15;;;;;;;12.37;11.57;;;;;;;19.53;82.31;93033.47;5071616;28;20249;-78
2022/06/05 00:19:43;;;;;;;11.93;10.93;;;;;;;19.68;82.16;93065.44;5071993;28;20180;-77
2022/06/05 00:22:09;;;;;;;12.33;11.23;;;;;;;19.61;81.98;93062.50;5071320;28;20257;-78
2022/06/05 00:24:35;;;;;;;12.27;11.23;;;;;;;19.43;82.90;93039.91;5070851;28;20179;-78
2022/06/05 00:27:12;;;;;;;11.87;10.87;;;;;;;19.61;82.77;93051.16;5071177;28;20235;-78
2022/06/05 00:30:04;;;;;;;15.17;11.20;;;;;;;19.66;83.18;93064.22;5071074;28;20186;-78
2022/06/05 00:32:34;;;;;;;12.33;11.27;;;;;;;19.69;82.78;93069.63;5070254;28;20227;-78
2022/06/05 00:34:59;;;;;;;10.80;9.93;;;;;;;19.62;82.80;93066.75;5087388;28;20244;-78
2022/06/05 00:37:59;;;;;;;12.03;11.13;;;;;;;19.68;83.04;93076.03;5071888;28;20240;-77
2022/06/05 00:40:31;;;;;;;11.43;10.43;;;;;;;19.57;82.50;93045.72;5037801;28;20201;-77
2022/06/05 00:42:59;;;;;;;12.40;11.33;;;;;;;19.60;82.35;93066.28;5070953;28;20220;-77
2022/06/05 00:45:27;;;;;;;12.25;11.40;;;;;;;19.48;82.97;93057.47;5070795;28;20227;-78
2022/06/05 00:47:52;;;;;;;12.80;11.67;;;;;;;19.53;82.98;93060.72;5070779;28;20247;-78
2022/06/05 00:50:22;;;;;;;11.10;10.30;;;;;;;19.58;83.11;93087.00;5071620;28;20194;-78
2022/06/05 00:52:55;;;;;;;11.93;11.07;;;;;;;19.53;83.89;93081.91;5070616;28;20291;-78
2022/06/05 00:55:21;;;;;;;12.13;11.13;;;;;;;19.50;83.58;93077.25;5071126;28;20215;-78
2022/06/05 00:57:47;;;;;;;11.80;10.80;;;;;;;19.48;83.61;93079.44;5070003;28;20231;-77
2022/06/05 01:00:18;;;;;;;12.40;11.40;;;;;;;19.43;84.01;93078.84;5070697;28;20192;-78
2022/06/05 01:02:47;;;;;;;12.07;11.17;;;;;;;19.51;82.96;93078.81;5070816;28;20240;-78
2022/06/05 01:05:15;;;;;;;12.43;10.97;;;;;;;19.31;83.53;93054.94;5069807;28;20252;-78
2022/06/05 01:07:41;;;;;;;12.47;11.10;;;;;;;19.40;83.81;93076.84;5071303;28;20746;-78
2022/06/05 01:10:08;;;;;;;11.98;10.40;;;;;;;19.14;85.01;93075.06;5072170;28;20172;-79
2022/06/05 01:12:48;;;;;;;11.80;10.90;;;;;;;19.02;85.61;93071.56;5069787;28;20245;-78
2022/06/05 01:15:20;;;;;;;11.87;10.87;;;;;;;19.16;84.83;93061.53;5069919;28;20210;-78
2022/06/05 01:18:17;;;;;;;12.27;11.37;;;;;;;19.12;84.67;93053.47;5069947;28;20228;-78
2022/06/05 01:21:10;;;;;;;11.23;10.33;;;;;;;19.05;85.24;93063.75;5048717;28;20242;-78
2022/06/05 01:24:00;;;;;;;12.47;11.47;;;;;;;18.97;85.58;93069.09;5069361;28;20230;-78
2022/06/05 01:26:45;;;;;;;12.30;11.30;;;;;;;18.82;85.91;93057.19;5068853;28;20233;-78
2022/06/05 01:29:21;;;;;;;11.17;10.37;;;;;;;18.77;86.48;93056.59;5070975;28;20188;-78
2022/06/05 01:32:07;;;;;;;11.70;10.53;;;;;;;18.53;86.54;93020.09;5069684;28;20222;-78
2022/06/05 01:34:41;;;;;;;11.80;10.90;;;;;;;18.80;85.92;93053.31;5066880;28;20248;-78
2022/06/05 01:37:16;;;;;;;12.13;11.13;;;;;;;18.73;86.99;93059.09;5069916;28;20230;-78
2022/06/05 01:39:51;;;;;;;12.63;11.57;;;;;;;18.78;86.46;93066.84;5068483;28;20185;-78
2022/06/05 01:42:22;;;;;;;12.73;11.73;;;;;;;18.82;85.96;93073.03;5062564;28;20276;-78
2022/06/05 01:44:50;;;;;;;12.70;11.57;;;;;;;18.88;85.67;93073.63;5049277;28;20207;-78
2022/06/05 01:47:21;;;;;;;12.17;11.23;;;;;;;18.96;85.93;93072.81;5050142;28;20236;-78
2022/06/05 01:49:55;;;;;;;12.83;11.83;;;;;;;18.93;85.90;93074.25;5065709;28;20181;-78
2022/06/05 01:52:29;;;;;;;12.33;11.27;;;;;;;19.07;85.44;93071.38;5064741;28;20249;-78
2022/06/05 01:55:03;;;;;;;12.83;11.93;;;;;;;19.03;85.69;93062.53;5049276;28;20197;-78
2022/06/05 01:57:30;;;;;;;13.00;11.80;;;;;;;19.02;85.77;93060.97;5059616;28;20227;-78
2022/06/05 02:00:16;;;;;;;12.03;11.23;;;;;;;18.94;86.57;93064.44;5069813;28;20201;-78
2022/06/05 02:02:51;;;;;;;12.90;11.63;;;;;;;19.20;84.35;93062.44;5069179;28;20230;-78
2022/06/05 02:05:25;;;;;;;12.20;11.23;;;;;;;18.92;85.25;93046.25;5069382;28;20183;-78
2022/06/05 02:07:58;;;;;;;12.30;11.07;;;;;;;19.09;85.50;93058.59;5070127;28;20247;-78
2022/06/05 02:10:39;;;;;;;12.27;11.37;;;;;;;19.04;84.89;93037.63;5101806;28;20189;-78
2022/06/05 02:13:05;;;;;;;11.50;10.70;;;;;;;19.00;85.50;93058.63;5048265;28;20225;-79
2022/06/05 02:15:31;;;;;;;11.20;10.40;;;;;;;18.93;86.52;93055.72;5049070;28;20223;-78
2022/06/05 02:17:57;;;;;;;12.03;11.00;;;;;;;19.04;85.66;93037.63;5048748;28;20228;-79
2022/06/05 02:20:23;;;;;;;12.73;11.63;;;;;;;18.98;85.69;93039.69;5049497;28;20179;-79
2022/06/05 02:22:50;;;;;;;12.37;11.27;;;;;;;18.91;86.57;93043.91;5049417;28;20256;-78
2022/06/05 02:25:20;;;;;;;12.20;11.27;;;;;;;18.70;87.23;93013.97;5048940;28;20195;-79
2022/06/05 02:27:46;;;;;;;12.47;11.30;;;;;;;18.98;86.47;93037.03;5048601;28;20234;-78
2022/06/05 02:30:13;;;;;;;13.20;11.93;;;;;;;18.98;85.99;93041.53;5049283;28;20203;-78
2022/06/05 02:33:00;;;;;;;12.90;11.90;;;;;;;18.93;85.76;93052.28;5049251;28;20258;-79
2022/06/05 02:36:07;;;;;;;12.47;11.37;;;;;;;19.01;85.28;93054.13;5048192;28;21039;-79
2022/06/05 02:38:56;;;;;;;12.20;11.20;;;;;;;18.53;85.75;93000.81;5051278;28;20228;-79
2022/06/05 02:41:32;;;;;;;12.17;11.17;;;;;;;18.70;87.39;93043.84;5064553;28;20233;-79
2022/06/05 02:47:18;;;;;;;12.67;11.67;;;;;;;18.64;87.95;93044.34;5047667;28;20238;-78
2022/06/05 02:50:11;;;;;;;12.13;11.03;;;;;;;18.57;88.83;93038.75;5064622;28;20201;-79
2022/06/05 02:52:37;;;;;;;12.20;11.13;;;;;;;18.47;89.16;93033.81;5047692;28;20227;-79
2022/06/05 02:55:08;;;;;;;12.10;10.90;;;;;;;18.59;89.21;93031.28;5064496;28;20222;-79
2022/06/05 02:57:34;;;;;;;14.30;13.00;;;;;;;18.41;88.43;93004.09;5048250;28;20227;-79
2022/06/05 03:00:00;;;;;;;13.37;12.17;;;;;;;18.69;87.94;93030.94;5048853;28;20195;-79
2022/06/05 03:05:10;;;;;;;13.30;11.93;;;;;;;18.48;89.00;93038.00;5048900;28;20198;-79
2022/06/05 03:07:37;;;;;;;13.87;12.67;;;;;;;18.55;88.42;93030.38;5048546;28;20242;-77
2022/06/05 03:10:03;;;;;;;11.93;11.13;;;;;;;18.56;88.72;93037.19;5048982;28;20188;-77
2022/06/05 03:12:29;;;;;;;14.93;12.80;;;;;;;18.47;89.09;93029.31;5064059;28;20231;-79
2022/06/05 03:14:57;;;;;;;12.60;11.50;;;;;;;18.71;88.02;93039.31;5067326;28;21228;-79
2022/06/05 03:17:23;;;;;;;12.87;11.67;;;;;;;18.76;86.87;93039.94;5068728;28;20221;-79
2022/06/05 03:19:49;;;;;;;14.10;13.00;;;;;;;19.08;85.49;93043.84;5069023;28;20222;-79
2022/06/05 03:22:14;;;;;;;12.63;11.73;;;;;;;19.20;84.70;93033.31;5068463;28;20234;-91
2022/06/05 03:24:40;;;;;;;15.43;12.87;;;;;;;19.54;83.19;93056.19;5069297;28;20196;-94
2022/06/05 03:27:06;;;;;;;12.57;11.27;;;;;;;20.00;79.93;93054.09;5068823;28;20231;-92
2022/06/05 03:29:31;;;;;;;12.47;11.27;;;;;;;21.25;74.45;93063.25;5068730;28;20192;-94
2022/06/05 03:31:57;;;;;;;12.57;11.50;;;;;;;21.02;74.61;93036.38;5068590;28;20322;-94
2022/06/05 03:34:23;;;;;;;11.40;10.50;;;;;;;20.43;76.45;93017.41;5069390;28;20219;-92
2022/06/05 03:36:48;;;;;;;13.27;12.00;;;;;;;21.05;75.33;93064.94;5084763;28;20240;-94
2022/06/05 03:39:14;;;;;;;12.75;11.68;;;;;;;20.91;76.18;93061.78;5083718;28;20203;-92
2022/06/05 03:41:40;;;;;;;12.52;11.45;;;;;;;21.61;73.79;93073.88;5067167;28;20251;-93
2022/06/05 03:44:05;;;;;;;11.80;10.88;;;;;;;22.68;68.38;93041.97;5069008;28;20212;-90
2022/06/05 03:46:34;;;;;;;12.15;11.02;;;;;;;22.86;67.83;93059.91;5068957;28;20202;-90
2022/06/05 03:48:59;;;;;;;12.02;10.73;;;;;;;22.23;69.52;93039.59;5048594;28;20190;-91
2022/06/05 03:51:25;;;;;;;13.32;11.43;;;;;;;21.92;71.12;93034.94;5049520;28;20219;-93
2022/06/05 03:53:50;;;;;;;11.48;10.68;;;;;;;22.45;70.09;93055.00;5055807;28;20230;-91
2022/06/05 03:56:19;;;;;;;11.00;10.23;;;;;;;22.86;68.27;93064.47;5054839;28;20893;-93
2022/06/05 03:58:44;;;;;;;12.82;11.02;;;;;;;23.13;67.65;93075.03;5070074;28;20275;-94
2022/06/05 04:01:12;;;;;;;13.88;11.43;;;;;;;22.90;68.00;93052.78;5072184;28;20225;-91
2022/06/05 04:03:38;;;;;;;13.07;11.80;;;;;;;22.66;68.53;93050.28;5068645;28;20246;-93
2022/06/05 04:06:09;;;;;;;12.73;11.52;;;;;;;22.75;69.73;93082.06;5072591;28;20226;-93
2022/06/05 04:08:35;;;;;;;13.20;11.95;;;;;;;22.81;67.58;93084.13;5072251;28;20223;-92
2022/06/05 04:11:13;;;;;;;12.98;10.82;;;;;;;22.98;66.21;93073.16;5072025;28;20218;-88
2022/06/05 04:13:40;;;;;;;13.77;12.55;;;;;;;23.19;65.56;93092.31;5070722;28;20310;-90
2022/06/05 04:16:11;;;;;;;13.77;12.48;;;;;;;22.53;67.06;93077.28;5071708;28;20222;-89
2022/06/05 04:18:36;;;;;;;14.02;12.65;;;;;;;21.91;68.46;93032.63;5071034;28;20224;-91
2022/06/05 04:21:09;;;;;;;13.25;12.05;;;;;;;22.17;69.09;93088.81;5071597;28;20254;-91
2022/06/05 04:23:34;;;;;;;13.88;12.68;;;;;;;22.17;69.73;93070.22;5070431;28;20227;-91
2022/06/05 04:26:00;;;;;;;12.82;11.70;;;;;;;22.61;68.80;93076.38;5070626;28;20203;-92
2022/06/05 04:28:25;;;;;;;13.52;12.30;;;;;;;22.61;68.24;93073.69;5051876;28;20220;-92
2022/06/05 04:30:51;;;;;;;14.38;12.90;;;;;;;22.34;68.40;93053.94;5050364;28;20185;-93
2022/06/05 04:33:16;;;;;;;14.38;12.98;;;;;;;22.60;68.96;93067.59;5050655;28;20303;-81
2022/06/05 04:35:41;;;;;;;14.82;13.52;;;;;;;22.67;69.60;93070.47;5051187;28;20272;-79
2022/06/05 04:38:07;;;;;;;13.40;12.13;;;;;;;23.46;65.95;93062.16;5049706;28;20227;-79
2022/06/05 04:40:32;;;;;;;14.60;13.13;;;;;;;23.98;64.16;93071.69;5050342;28;20195;-70
2022/06/05 04:42:57;;;;;;;18.77;13.20;;;;;;;23.72;65.54;93070.34;5062181;28;20300;-71
2022/06/05 04:45:23;;;;;;;13.23;11.98;;;;;;;23.52;66.29;93059.97;5070406;28;20316;-71
2022/06/05 04:47:49;;;;;;;14.38;13.07;;;;;;;23.31;66.99;93062.94;5068686;28;20302;-71
2022/06/05 04:50:15;;;;;;;14.90;12.15;;;;;;;23.46;66.65;93067.47;5069924;28;20206;-69
2022/06/05 04:52:40;;;;;;;14.13;12.43;;;;;;;22.67;69.25;93057.16;5070543;28;20240;-71
2022/06/05 04:55:07;;;;;;;15.57;14.35;;;;;;;23.05;67.98;93067.22;5070236;28;20222;-70
2022/06/05 04:57:34;;;;;;;14.90;13.40;;;;;;;23.05;67.58;93054.66;5059437;28;20235;-70
2022/06/05 04:59:59;;;;;;;14.65;13.30;;;;;;;22.81;67.97;93048.72;5049280;28;20183;-73
2022/06/05 05:02:24;;;;;;;14.60;13.40;;;;;;;23.06;67.28;93052.78;5048900;28;20217;-74
2022/06/05 05:04:50;;;;;;;14.48;13.18;;;;;;;23.30;66.71;93069.38;5049629;28;20196;-74
2022/06/05 05:07:16;;;;;;;15.48;13.90;;;;;;;23.46;66.25;93072.03;5057947;28;20231;-74
2022/06/05 05:09:41;;;;;;;14.65;13.05;;;;;;;25.10;60.84;93084.53;5070367;28;20184;-74
2022/06/05 05:12:09;;;;;;;14.77;12.70;;;;;;;25.33;59.67;93085.31;5069473;28;20219;-74
2022/06/05 05:14:37;;;;;;;14.57;13.13;;;;;;;24.34;63.07;93071.28;5070111;28;20276;-75
2022/06/05 05:17:03;;;;;;;14.63;13.20;;;;;;;24.45;63.21;93078.34;5069970;28;20258;-75
2022/06/05 05:19:28;;;;;;;15.00;13.52;;;;;;;24.40;63.20;93091.22;5070717;28;20207;-74
2022/06/05 05:21:54;;;;;;;14.50;13.13;;;;;;;24.62;62.23;93085.16;5070284;28;20232;-73
2022/06/05 05:24:19;;;;;;;15.65;14.23;;;;;;;24.09;64.23;93094.00;5071052;28;20250;-73
2022/06/05 05:26:45;;;;;;;13.70;12.60;;;;;;;25.08;61.10;93105.50;5070168;28;20235;-72
2022/06/05 05:29:10;;;;;;;17.80;13.45;;;;;;;;;;5069784;28;20229;-71
2022/06/05 05:31:39;;;;;;;14.43;13.13;;;;;;;27.25;54.72;93106.94;5069481;28;20255;-71
2022/06/05 05:34:05;;;;;;;14.63;12.13;;;;;;;31.07;44.07;93120.56;5068775;28;20209;-71
2022/06/05 05:36:30;;;;;;;12.82;11.65;;;;;;;33.91;37.90;93127.72;5068680;28;20189;-71
2022/06/05 05:44:26;;;;;;;11.68;10.68;;;;;;;35.27;33.80;93124.41;5068867;28;20192;-71
2022/06/05 05:46:52;;;;;;;12.20;11.15;;;;;;;37.37;30.65;93144.06;5068812;28;20276;-71
2022/06/05 05:49:17;;;;;;;12.35;11.07;;;;;;;36.35;31.70;93138.63;5068006;28;21004;-72
2022/06/05 05:51:43;;;;;;;12.55;11.35;;;;;;;36.98;30.40;93120.63;5065676;28;20241;-71
2022/06/05 05:54:10;;;;;;;13.90;10.60;;;;;;;32.17;38.97;93116.69;5067876;28;20188;-72
2022/06/05 05:56:36;;;;;;;13.25;11.88;;;;;;;35.26;33.81;93127.53;5067662;28;20205;-71
2022/06/05 05:59:01;;;;;;;11.50;10.40;;;;;;;35.74;32.35;93135.06;5068056;28;20257;-72
2022/06/05 06:01:27;;;;;;;12.13;10.73;;;;;;;37.17;30.78;93141.50;5066468;28;20185;-71
2022/06/05 06:03:53;;;;;;;11.32;10.43;;;;;;;35.17;34.14;93136.28;5048111;28;20297;-72
2022/06/05 06:06:25;;;;;;;11.27;10.20;;;;;;;36.81;30.55;93144.44;5048822;28;20193;-72
2022/06/05 06:08:50;;;;;;;11.13;10.02;;;;;;;37.40;30.57;93143.19;5047410;28;20257;-72
2022/06/05 06:11:16;;;;;;;10.82;9.90;;;;;;;37.51;30.50;93149.88;5046657;28;20237;-73
2022/06/05 06:13:41;;;;;;;13.05;10.45;;;;;;;36.93;30.61;93121.16;5047127;28;20233;-74
2022/06/05 06:16:07;;;;;;;11.23;10.13;;;;;;;35.48;33.61;93142.22;5048337;28;20228;-72
2022/06/05 06:18:32;;;;;;;11.80;10.65;;;;;;;37.07;31.17;93148.00;5066148;28;20245;-71
2022/06/05 06:20:58;;;;;;;12.93;11.35;;;;;;;38.18;29.54;93162.19;5066342;28;20213;-72
2022/06/05 06:23:23;;;;;;;11.73;10.27;;;;;;;32.78;38.02;93127.69;5067237;28;20228;-72
2022/06/05 06:25:49;;;;;;;11.45;10.27;;;;;;;32.74;39.99;93127.72;5067949;28;20197;-73
2022/06/05 06:28:14;;;;;;;10.40;9.50;;;;;;;32.83;39.08;93111.75;5051973;28;20225;-72
2022/06/05 06:30:40;;;;;;;13.15;9.13;;;;;;;34.54;35.70;93131.31;5046352;28;20189;-72
2022/06/05 06:33:05;;;;;;;10.18;9.23;;;;;;;32.21;38.27;93119.38;5047581;28;20305;-72
2022/06/05 06:35:34;;;;;;;10.70;9.82;;;;;;;33.52;37.60;93122.88;5047266;28;20240;-71
2022/06/05 06:38:00;;;;;;;10.68;9.68;;;;;;;35.32;33.86;93129.34;5048091;28;20234;-72
2022/06/05 06:40:25;;;;;;;9.98;9.07;;;;;;;34.13;36.59;93128.91;5048018;28;20201;-71
2022/06/05 06:42:54;;;;;;;10.52;9.55;;;;;;;35.33;34.38;93125.44;5047246;28;20226;-70
2022/06/05 06:45:19;;;;;;;10.95;9.75;;;;;;;34.84;35.33;93126.44;5047577;28;20333;-72
2022/06/05 06:47:44;;;;;;;13.15;10.52;;;;;;;30.72;41.23;93109.91;5059324;28;20221;-71
2022/06/05 06:50:10;;;;;;;11.68;10.63;;;;;;;28.03;48.22;93112.56;5068423;28;20192;-72
2022/06/05 06:52:36;;;;;;;14.18;11.65;;;;;;;27.00;52.16;93101.34;5067238;28;20243;-74
2022/06/05 06:55:03;;;;;;;11.88;10.48;;;;;;;27.27;52.92;93099.34;5067979;28;20228;-70
2022/06/05 06:57:28;;;;;;;12.93;11.82;;;;;;;26.75;53.39;93097.63;5067604;28;20307;-72
2022/06/05 06:59:55;;;;;;;12.60;11.40;;;;;;;27.48;53.22;93086.88;5068395;28;20211;-73
2022/06/05 07:02:20;;;;;;;12.10;11.20;;;;;;;26.43;56.24;93086.50;5065126;28;20290;-72
2022/06/05 07:04:46;;;;;;;13.77;12.07;;;;;;;26.41;57.02;93098.75;5068717;28;20192;-71
2022/06/05 07:07:11;;;;;;;12.65;11.60;;;;;;;26.17;56.61;93094.63;5059800;28;20267;-72
2022/06/05 07:09:36;;;;;;;13.93;12.63;;;;;;;26.01;56.34;93059.22;5049089;28;20208;-71
2022/06/05 07:12:02;;;;;;;13.80;12.57;;;;;;;26.34;55.00;93091.38;5052239;28;20248;-73
2022/06/05 07:14:27;;;;;;;13.63;12.38;;;;;;;26.27;55.43;93093.97;5082917;28;20217;-72
2022/06/05 07:16:55;;;;;;;13.63;12.48;;;;;;;26.26;56.88;93092.44;5067211;28;20213;-75
2022/06/05 07:19:20;;;;;;;14.10;12.75;;;;;;;26.16;56.35;93093.09;5067070;28;20170;-74
2022/06/05 07:21:46;;;;;;;16.50;13.68;;;;;;;26.44;54.41;93098.78;5066736;28;20315;-73
2022/06/05 07:24:11;;;;;;;13.68;12.63;;;;;;;26.53;55.26;93099.28;5066338;28;20189;-74
2022/06/05 07:26:37;;;;;;;13.90;12.48;;;;;;;26.46;56.31;93096.50;5066749;28;20232;-73
2022/06/05 07:29:04;;;;;;;12.18;11.27;;;;;;;26.31;56.15;93091.34;5068279;28;20201;-75
2022/06/05 07:31:31;;;;;;;12.52;11.48;;;;;;;27.14;54.58;93106.06;5065393;28;20186;-75
2022/06/05 07:33:58;;;;;;;10.98;10.18;;;;;;;27.19;54.45;93098.44;5071575;28;20185;-74
2022/06/05 07:36:25;;;;;;;14.57;13.25;;;;;;;27.38;52.12;93084.09;5070385;28;20215;-74
2022/06/05 07:38:50;;;;;;;12.57;11.60;;;;;;;27.85;51.64;93084.03;5070092;28;20197;-72
2022/06/05 07:41:22;;;;;;;12.02;11.23;;;;;;;27.41;51.20;93064.59;5071340;28;20185;-72
2022/06/05 07:43:48;;;;;;;14.00;12.93;;;;;;;26.81;54.16;93079.31;5071118;28;20205;-72
2022/06/05 07:46:14;;;;;;;13.18;11.98;;;;;;;26.60;55.26;93090.56;5071547;28;20194;-72
2022/06/05 07:48:40;;;;;;;12.65;11.65;;;;;;;26.52;56.61;93095.03;5049945;28;20252;-72
2022/06/05 07:56:41;;;;;;;13.00;11.80;;;;;;;26.46;57.39;93069.72;5066650;28;20305;-71
2022/06/05 07:59:07;;;;;;;12.85;11.52;;;;;;;26.64;56.41;93073.41;5050724;28;20182;-73
2022/06/05 08:01:36;;;;;;;12.90;11.80;;;;;;;26.88;57.02;93064.06;5052757;28;20205;-73
2022/06/05 08:04:03;;;;;;;11.40;10.60;;;;;;;26.68;56.45;93060.03;5085617;28;20194;-72
2022/06/05 08:06:29;;;;;;;11.75;10.80;;;;;;;26.66;55.67;93065.00;5068749;28;20197;-72
2022/06/05 08:08:55;;;;;;;11.35;10.45;;;;;;;26.60;56.18;93064.50;5069387;28;20190;-74
2022/06/05 08:11:20;;;;;;;11.98;11.02;;;;;;;26.58;55.38;93066.78;5069377;28;20239;-71
2022/06/05 08:13:45;;;;;;;10.95;10.15;;;;;;;26.49;55.28;93062.88;5070496;28;20201;-70
2022/06/05 08:16:12;;;;;;;10.65;9.88;;;;;;;26.83;55.14;93063.63;5071202;28;20228;-69
2022/06/05 08:18:38;;;;;;;12.25;11.25;;;;;;;26.76;53.29;93074.28;5070538;28;20222;-70
2022/06/05 08:21:03;;;;;;;11.55;10.75;;;;;;;26.92;52.72;93067.56;5070496;28;20216;-70
2022/06/05 08:23:29;;;;;;;11.50;10.77;;;;;;;26.70;52.06;93063.91;5071033;28;20296;-72
2022/06/05 08:25:54;;;;;;;12.02;11.20;;;;;;;26.85;51.65;93070.16;5070131;28;20200;-72
2022/06/05 08:28:20;;;;;;;12.20;11.40;;;;;;;27.23;51.60;93063.63;5069041;28;20263;-72
2022/06/05 08:30:45;;;;;;;11.50;10.50;;;;;;;26.96;51.17;93064.94;5071538;28;20220;-70
2022/06/05 08:33:11;;;;;;;12.32;11.43;;;;;;;26.98;51.89;93059.94;5068542;28;20274;-70
2022/06/05 08:35:37;;;;;;;12.48;11.38;;;;;;;27.08;52.03;93062.75;5069761;28;20213;-71
2022/06/05 08:44:29;;;;;;;11.80;10.90;;;;;;;26.69;52.95;93067.69;5069008;28;20212;-68
2022/06/05 08:47:20;;;;;;;11.82;10.82;;;;;;;26.89;51.52;93054.13;5069248;28;20252;-73
2022/06/05 08:50:13;;;;;;;10.95;10.18;;;;;;;26.76;50.15;93066.25;5068344;28;20186;-75
2022/06/05 08:53:11;;;;;;;10.55;9.57;;;;;;;26.84;48.97;93062.50;5056732;28;20217;-74
2022/06/05 08:55:40;;;;;;;9.82;8.85;;;;;;;27.06;46.78;93072.28;5035827;28;20261;-74
2022/06/05 08:58:21;;;;;;;9.10;8.48;;;;;;;26.93;47.36;93054.94;5065311;28;20245;-71
2022/06/05 09:00:49;;;;;;;10.13;9.23;;;;;;;27.15;46.85;93051.28;5049686;28;20201;-71
2022/06/05 09:03:23;;;;;;;9.90;9.10;;;;;;;27.27;45.84;93064.47;5063225;28;20229;-70
2022/06/05 09:05:55;;;;;;;9.23;8.50;;;;;;;27.15;45.68;93053.97;5069086;28;20177;-70
2022/06/05 09:08:25;;;;;;;8.77;8.10;;;;;;;27.12;45.36;93068.13;5054164;28;20230;-71
2022/06/05 09:10:59;;;;;;;9.98;9.18;;;;;;;27.54;44.46;93052.41;5050199;28;20197;-70
2022/06/05 09:13:43;;;;;;;10.40;8.88;;;;;;;27.51;46.23;93058.50;5049057;28;20305;-73
2022/06/05 09:16:23;;;;;;;9.27;8.60;;;;;;;27.20;43.38;93048.28;5050762;28;20209;-72
2022/06/05 09:18:49;;;;;;;9.38;8.65;;;;;;;27.58;44.04;93059.31;5049163;28;20206;-71
2022/06/05 09:21:26;;;;;;;9.18;8.52;;;;;;;27.53;44.61;93050.88;5050332;28;20197;-73
2022/06/05 09:24:13;;;;;;;8.80;8.30;;;;;;;27.63;45.99;93052.84;5049306;28;20221;-74
2022/06/05 09:26:48;;;;;;;8.95;8.35;;;;;;;27.51;41.36;93053.94;5051517;28;20225;-73
2022/06/05 09:29:26;;;;;;;8.43;7.97;;;;;;;27.56;41.68;93055.50;5068718;28;20184;-72
2022/06/05 09:32:15;;;;;;;8.88;8.23;;;;;;;27.25;44.11;93046.03;5068783;28;20267;-75
2022/06/05 09:34:50;;;;;;;9.35;8.57;;;;;;;27.49;41.49;93050.06;5083532;28;20236;-71
2022/06/05 09:37:35;;;;;;;10.05;9.05;;;;;;;27.70;42.21;93045.63;5068387;28;20221;-72
2022/06/05 09:40:12;;;;;;;9.07;8.52;;;;;;;27.58;41.50;93050.53;5069951;28;20174;-73
2022/06/05 09:43:18;;;;;;;9.95;8.95;;;;;;;27.60;41.68;93034.81;5066831;28;20286;-72
2022/06/05 09:45:52;;;;;;;9.05;8.45;;;;;;;27.59;41.63;93044.78;5069207;28;20246;-73
2022/06/05 09:48:26;;;;;;;9.10;8.40;;;;;;;27.28;41.71;93047.22;5067359;28;20224;-73
2022/06/05 09:50:52;;;;;;;10.02;9.32;;;;;;;27.56;40.43;93039.38;5068291;28;20189;-72
2022/06/05 09:53:26;;;;;;;8.90;8.40;;;;;;;27.42;41.41;93047.34;5069391;28;20225;-74
2022/06/05 09:56:23;;;;;;;9.25;8.57;;;;;;;27.55;40.29;93011.78;5069314;28;20242;-72
2022/06/05 09:59:01;;;;;;;9.20;8.70;;;;;;;27.44;41.09;93047.75;5068540;28;20267;-73
2022/06/05 10:01:28;;;;;;;9.18;8.48;;;;;;;27.75;39.62;93041.81;5069383;28;20192;-73
2022/06/05 10:03:57;;;;;;;9.25;8.65;;;;;;;27.41;40.34;93027.78;5085139;28;20986;-72
2022/06/05 10:06:38;;;;;;;10.25;9.50;;;;;;;27.23;40.76;93042.94;5068786;28;20201;-73
2022/06/05 10:09:07;;;;;;;9.38;8.77;;;;;;;27.47;41.14;93020.91;5069046;28;20174;-73
2022/06/05 10:11:54;;;;;;;9.55;9.05;;;;;;;27.45;40.85;93049.28;5068258;28;20221;-72
2022/06/05 10:14:31;;;;;;;10.10;9.40;;;;;;;27.43;39.40;93046.19;5099726;28;20181;-72
2022/06/05 10:17:26;;;;;;;9.23;8.73;;;;;;;27.59;40.06;93038.66;5068022;28;20225;-73
2022/06/05 10:20:06;;;;;;;9.77;8.88;;;;;;;27.51;40.64;93034.38;5067237;28;20181;-73
2022/06/05 10:22:47;;;;;;;10.50;9.80;;;;;;;27.76;40.02;93028.03;5067998;28;20828;-73
2022/06/05 10:25:30;;;;;;;9.52;8.65;;;;;;;27.68;41.35;93036.41;5068357;28;20274;-73
2022/06/05 10:28:13;;;;;;;9.52;8.93;;;;;;;27.64;41.31;93020.28;5068586;28;20295;-74
2022/06/05 10:30:50;;;;;;;9.15;8.55;;;;;;;27.99;40.92;93019.72;5069313;28;20184;-73
2022/06/05 10:33:31;;;;;;;9.18;8.52;;;;;;;28.08;40.53;93020.16;5069233;28;20213;-72
2022/06/05 10:36:02;;;;;;;9.10;8.45;;;;;;;27.94;41.67;93023.53;5067781;28;20205;-73
2022/06/05 10:38:34;;;;;;;9.82;9.13;;;;;;;27.88;41.05;93011.63;5068241;28;20248;-72
2022/06/05 10:41:19;;;;;;;9.45;8.95;;;;;;;28.03;39.55;93025.91;5069330;28;20181;-73
2022/06/05 10:44:04;;;;;;;9.55;8.95;;;;;;;28.21;40.79;93010.63;5083033;28;20205;-73
2022/06/05 10:46:32;;;;;;;10.07;9.38;;;;;;;28.05;41.55;92984.09;5068807;28;20192;-73
2022/06/05 10:49:06;;;;;;;9.93;9.07;;;;;;;28.27;41.46;92993.00;5069256;28;20181;-73
2022/06/05 10:51:47;;;;;;;10.68;9.65;;;;;;;28.39;41.15;93008.00;5068931;28;20202;-72
2022/06/05 10:54:15;;;;;;;10.65;10.05;;;;;;;28.60;39.85;93006.19;5068934;28;20664;-73
2022/06/05 10:56:40;;;;;;;10.75;9.93;;;;;;;28.57;39.61;93001.56;5067865;28;20243;-72
2022/06/05 10:59:24;;;;;;;10.13;9.43;;;;;;;28.01;39.93;93001.34;5086592;28;20185;-73
2022/06/05 11:02:26;;;;;;;10.45;9.50;;;;;;;28.46;39.94;93000.75;5068751;28;20248;-73
2022/06/05 11:05:27;;;;;;;9.65;8.85;;;;;;;28.83;39.54;93003.91;5067930;28;20212;-72
2022/06/05 11:08:04;;;;;;;10.73;9.88;;;;;;;28.67;40.22;93002.75;5071400;28;20330;-72
2022/06/05 11:13:39;;;;;;;10.02;9.40;;;;;;;28.85;39.54;93004.31;5073907;28;20199;-70
2022/06/05 11:13:45;;;;;;;9.98;9.20;;;;;;;29.01;39.80;93002.03;5073096;28;20257;-70
2022/06/05 11:16:38;;;;;;;9.93;9.23;;;;;;;28.93;39.24;92981.66;5073076;28;20208;-70
2022/06/05 11:19:08;;;;;;;9.73;9.00;;;;;;;28.57;40.18;92990.81;5072559;28;20288;-71
2022/06/05 11:21:34;;;;;;;9.88;9.38;;;;;;;28.59;40.45;92993.91;5070194;28;20184;-71
2022/06/05 11:24:00;;;;;;;9.25;8.70;;;;;;;29.03;40.19;92997.03;5052796;28;20189;-71
2022/06/05 11:26:42;;;;;;;9.48;8.88;;;;;;;28.73;39.10;92995.84;5054114;28;20201;-70
2022/06/05 11:29:40;;;;;;;9.27;8.77;;;;;;;29.05;38.17;92989.34;5072372;28;20211;-71
2022/06/05 11:32:31;;;;;;;9.57;8.77;;;;;;;28.61;38.93;92991.59;5037013;28;20232;-72
2022/06/05 11:35:11;;;;;;;9.55;8.85;;;;;;;28.64;37.88;92990.06;5072786;28;20218;-71
2022/06/05 11:37:46;;;;;;;9.68;9.07;;;;;;;28.58;38.59;92989.66;5071580;28;20221;-71
2022/06/05 11:40:48;;;;;;;9.43;8.70;;;;;;;28.81;39.24;92995.44;5073347;28;20208;-70
2022/06/05 11:43:33;;;;;;;8.48;8.05;;;;;;;28.75;37.86;92996.97;5071191;28;20224;-71
2022/06/05 11:46:32;;;;;;;9.05;8.52;;;;;;;28.86;36.79;92986.28;5072185;28;20195;-72
2022/06/05 11:49:42;;;;;;;8.40;7.78;;;;;;;28.21;36.11;92967.66;5071498;28;20212;-73
2022/06/05 11:52:52;;;;;;;8.35;7.70;;;;;;;28.81;37.97;92971.25;5071205;28;20223;-72
2022/06/05 11:55:33;;;;;;;8.45;8.05;;;;;;;29.18;37.98;92969.03;5071700;28;20240;-71
2022/06/05 11:58:09;;;;;;;9.15;8.45;;;;;;;29.32;38.19;92957.47;5071126;28;20277;-71
2022/06/05 12:00:41;;;;;;;8.55;7.80;;;;;;;28.93;36.30;92964.75;5072259;28;20191;-72
2022/06/05 12:03:20;;;;;;;7.50;7.10;;;;;;;29.64;34.34;92967.06;5071267;28;20312;-76
2022/06/05 12:05:45;;;;;;;8.02;7.43;;;;;;;30.39;33.50;92967.56;5071023;28;20296;-75
2022/06/05 12:08:20;;;;;;;6.63;6.30;;;;;;;30.01;32.54;92969.25;5071835;28;20227;-79